sensor_id;sensor_type;location;lat;lon;timestamp;P1;durP1;ratioP1;P2;durP2;ratioP2
63259;SDS011;49390;51.380;0.098;2023-07-31T00:00:18;12.82;;;4.93;;
63259;SDS011;49390;51.380;0.098;2023-07-31T00:03:06;10.40;;;4.30;;
63259;SDS011;49390;51.380;0.098;2023-07-31T00:05:34;8.63;;;3.72;;
63259;SDS011;49390;51.380;0.098;2023-07-31T00:08:02;9.82;;;3.95;;
63259;SDS011;49390;51.380;0.098;2023-07-31T00:10:30;9.80;;;3.75;;
63259;SDS011;49390;51.380;0.098;2023-07-31T00:12:58;10.18;;;3.95;;
63259;SDS011;49390;51.380;0.098;2023-07-31T00:15:26;8.63;;;3.30;;
63259;SDS011;49390;51.380;0.098;2023-07-31T00:17:54;9.82;;;3.30;;
63259;SDS011;49390;51.380;0.098;2023-07-31T00:20:23;7.07;;;3.28;;
63259;SDS011;49390;51.380;0.098;2023-07-31T00:22:51;8.90;;;3.45;;
63259;SDS011;49390;51.380;0.098;2023-07-31T00:25:19;6.75;;;2.85;;
63259;SDS011;49390;51.380;0.098;2023-07-31T00:27:46;7.80;;;3.15;;
63259;SDS011;49390;51.380;0.098;2023-07-31T00:30:15;8.18;;;3.08;;
63259;SDS011;49390;51.380;0.098;2023-07-31T00:32:43;7.50;;;2.90;;
63259;SDS011;49390;51.380;0.098;2023-07-31T00:35:11;9.00;;;2.60;;
63259;SDS011;49390;51.380;0.098;2023-07-31T00:37:39;3.97;;;2.13;;
63259;SDS011;49390;51.380;0.098;2023-07-31T00:40:09;4.15;;;2.17;;
63259;SDS011;49390;51.380;0.098;2023-07-31T00:42:38;4.68;;;2.10;;
63259;SDS011;49390;51.380;0.098;2023-07-31T00:45:08;5.93;;;2.40;;
63259;SDS011;49390;51.380;0.098;2023-07-31T00:47:36;5.03;;;2.20;;
63259;SDS011;49390;51.380;0.098;2023-07-31T00:50:04;4.45;;;2.25;;
63259;SDS011;49390;51.380;0.098;2023-07-31T00:52:38;4.57;;;2.10;;
63259;SDS011;49390;51.380;0.098;2023-07-31T00:55:06;5.07;;;2.05;;
63259;SDS011;49390;51.380;0.098;2023-07-31T00:57:35;6.50;;;2.75;;
63259;SDS011;49390;51.380;0.098;2023-07-31T01:00:05;3.33;;;1.90;;
63259;SDS011;49390;51.380;0.098;2023-07-31T01:02:34;4.53;;;1.80;;
63259;SDS011;49390;51.380;0.098;2023-07-31T01:05:03;4.78;;;2.55;;
63259;SDS011;49390;51.380;0.098;2023-07-31T01:07:39;3.60;;;1.92;;
63259;SDS011;49390;51.380;0.098;2023-07-31T01:10:32;3.60;;;1.70;;
63259;SDS011;49390;51.380;0.098;2023-07-31T01:13:04;3.42;;;1.88;;
63259;SDS011;49390;51.380;0.098;2023-07-31T01:18:05;2.85;;;1.67;;
63259;SDS011;49390;51.380;0.098;2023-07-31T01:20:34;3.30;;;1.70;;
63259;SDS011;49390;51.380;0.098;2023-07-31T01:28:42;3.00;;;1.58;;
63259;SDS011;49390;51.380;0.098;2023-07-31T01:31:33;2.75;;;1.73;;
63259;SDS011;49390;51.380;0.098;2023-07-31T01:34:03;2.30;;;1.75;;
63259;SDS011;49390;51.380;0.098;2023-07-31T01:36:36;1.30;;;1.20;;
63259;SDS011;49390;51.380;0.098;2023-07-31T01:39:04;4.03;;;1.50;;
63259;SDS011;49390;51.380;0.098;2023-07-31T01:41:33;2.72;;;1.52;;
63259;SDS011;49390;51.380;0.098;2023-07-31T01:44:00;2.83;;;1.63;;
63259;SDS011;49390;51.380;0.098;2023-07-31T01:46:28;2.78;;;1.50;;
63259;SDS011;49390;51.380;0.098;2023-07-31T01:48:57;3.15;;;1.60;;
63259;SDS011;49390;51.380;0.098;2023-07-31T01:51:27;3.22;;;1.60;;
63259;SDS011;49390;51.380;0.098;2023-07-31T01:54:01;3.95;;;1.80;;
63259;SDS011;49390;51.380;0.098;2023-07-31T01:56:29;4.32;;;1.90;;
63259;SDS011;49390;51.380;0.098;2023-07-31T01:58:57;3.53;;;1.70;;
63259;SDS011;49390;51.380;0.098;2023-07-31T02:01:25;2.63;;;1.60;;
63259;SDS011;49390;51.380;0.098;2023-07-31T02:03:53;3.63;;;1.95;;
63259;SDS011;49390;51.380;0.098;2023-07-31T02:06:22;2.78;;;1.52;;
63259;SDS011;49390;51.380;0.098;2023-07-31T02:08:50;3.25;;;1.92;;
63259;SDS011;49390;51.380;0.098;2023-07-31T02:11:19;4.18;;;1.75;;
63259;SDS011;49390;51.380;0.098;2023-07-31T02:13:50;3.10;;;1.80;;
63259;SDS011;49390;51.380;0.098;2023-07-31T02:16:18;2.80;;;1.63;;
63259;SDS011;49390;51.380;0.098;2023-07-31T02:18:46;4.70;;;1.90;;
63259;SDS011;49390;51.380;0.098;2023-07-31T02:21:14;2.83;;;1.70;;
63259;SDS011;49390;51.380;0.098;2023-07-31T02:23:42;3.53;;;1.80;;
63259;SDS011;49390;51.380;0.098;2023-07-31T02:26:11;4.03;;;1.92;;
63259;SDS011;49390;51.380;0.098;2023-07-31T02:28:39;4.63;;;1.85;;
63259;SDS011;49390;51.380;0.098;2023-07-31T02:31:11;2.63;;;1.73;;
63259;SDS011;49390;51.380;0.098;2023-07-31T02:33:41;3.38;;;1.80;;
63259;SDS011;49390;51.380;0.098;2023-07-31T02:36:10;4.70;;;2.00;;
63259;SDS011;49390;51.380;0.098;2023-07-31T02:38:38;5.53;;;1.77;;
63259;SDS011;49390;51.380;0.098;2023-07-31T02:41:06;3.15;;;1.63;;
63259;SDS011;49390;51.380;0.098;2023-07-31T02:43:36;2.83;;;1.50;;
63259;SDS011;49390;51.380;0.098;2023-07-31T02:46:07;4.77;;;1.87;;
63259;SDS011;49390;51.380;0.098;2023-07-31T02:48:35;2.83;;;1.80;;
63259;SDS011;49390;51.380;0.098;2023-07-31T02:51:03;3.10;;;1.70;;
63259;SDS011;49390;51.380;0.098;2023-07-31T02:53:31;3.25;;;1.83;;
63259;SDS011;49390;51.380;0.098;2023-07-31T02:55:59;4.32;;;2.03;;
63259;SDS011;49390;51.380;0.098;2023-07-31T02:58:27;2.97;;;1.55;;
63259;SDS011;49390;51.380;0.098;2023-07-31T03:00:55;5.10;;;2.00;;
63259;SDS011;49390;51.380;0.098;2023-07-31T03:03:25;3.75;;;1.63;;
63259;SDS011;49390;51.380;0.098;2023-07-31T03:05:55;3.70;;;1.80;;
63259;SDS011;49390;51.380;0.098;2023-07-31T03:08:24;3.97;;;1.80;;
63259;SDS011;49390;51.380;0.098;2023-07-31T03:10:52;4.20;;;1.80;;
63259;SDS011;49390;51.380;0.098;2023-07-31T03:13:22;3.92;;;1.70;;
63259;SDS011;49390;51.380;0.098;2023-07-31T03:15:50;4.90;;;2.10;;
63259;SDS011;49390;51.380;0.098;2023-07-31T03:18:18;5.22;;;1.95;;
63259;SDS011;49390;51.380;0.098;2023-07-31T03:20:46;3.58;;;1.90;;
63259;SDS011;49390;51.380;0.098;2023-07-31T03:23:14;3.47;;;1.80;;
63259;SDS011;49390;51.380;0.098;2023-07-31T03:25:54;3.05;;;1.60;;
63259;SDS011;49390;51.380;0.098;2023-07-31T03:28:29;4.07;;;1.90;;
63259;SDS011;49390;51.380;0.098;2023-07-31T03:30:57;4.82;;;1.92;;
63259;SDS011;49390;51.380;0.098;2023-07-31T03:33:26;3.83;;;1.83;;
63259;SDS011;49390;51.380;0.098;2023-07-31T03:35:55;3.83;;;1.70;;
63259;SDS011;49390;51.380;0.098;2023-07-31T03:38:22;4.72;;;1.67;;
63259;SDS011;49390;51.380;0.098;2023-07-31T03:40:51;3.25;;;1.67;;
63259;SDS011;49390;51.380;0.098;2023-07-31T03:43:18;4.00;;;1.77;;
63259;SDS011;49390;51.380;0.098;2023-07-31T03:45:49;3.13;;;1.63;;
63259;SDS011;49390;51.380;0.098;2023-07-31T03:48:20;2.35;;;1.50;;
63259;SDS011;49390;51.380;0.098;2023-07-31T03:50:49;2.40;;;1.75;;
63259;SDS011;49390;51.380;0.098;2023-07-31T03:53:17;3.38;;;1.80;;
63259;SDS011;49390;51.380;0.098;2023-07-31T03:55:45;3.55;;;1.70;;
63259;SDS011;49390;51.380;0.098;2023-07-31T03:58:13;2.30;;;1.63;;
63259;SDS011;49390;51.380;0.098;2023-07-31T04:00:41;2.25;;;1.55;;
63259;SDS011;49390;51.380;0.098;2023-07-31T04:03:09;3.15;;;1.73;;
63259;SDS011;49390;51.380;0.098;2023-07-31T04:05:40;4.03;;;1.65;;
63259;SDS011;49390;51.380;0.098;2023-07-31T04:08:08;4.57;;;1.83;;
63259;SDS011;49390;51.380;0.098;2023-07-31T04:10:36;2.40;;;1.58;;
63259;SDS011;49390;51.380;0.098;2023-07-31T04:13:03;2.13;;;1.45;;
63259;SDS011;49390;51.380;0.098;2023-07-31T04:15:32;2.80;;;1.60;;
63259;SDS011;49390;51.380;0.098;2023-07-31T04:17:59;2.70;;;1.50;;
63259;SDS011;49390;51.380;0.098;2023-07-31T04:20:28;3.47;;;1.70;;
63259;SDS011;49390;51.380;0.098;2023-07-31T04:22:55;3.13;;;1.63;;
63259;SDS011;49390;51.380;0.098;2023-07-31T04:25:24;4.85;;;1.70;;
63259;SDS011;49390;51.380;0.098;2023-07-31T04:27:51;2.17;;;1.80;;
63259;SDS011;49390;51.380;0.098;2023-07-31T04:30:22;4.65;;;1.92;;
63259;SDS011;49390;51.380;0.098;2023-07-31T04:35:21;2.13;;;1.60;;
63259;SDS011;49390;51.380;0.098;2023-07-31T04:37:49;2.45;;;1.70;;
63259;SDS011;49390;51.380;0.098;2023-07-31T04:40:17;3.72;;;1.65;;
63259;SDS011;49390;51.380;0.098;2023-07-31T04:42:45;3.65;;;1.90;;
63259;SDS011;49390;51.380;0.098;2023-07-31T04:45:14;3.00;;;1.98;;
63259;SDS011;49390;51.380;0.098;2023-07-31T04:47:42;3.28;;;1.90;;
63259;SDS011;49390;51.380;0.098;2023-07-31T04:50:10;3.55;;;2.00;;
63259;SDS011;49390;51.380;0.098;2023-07-31T04:52:38;3.03;;;1.80;;
63259;SDS011;49390;51.380;0.098;2023-07-31T04:55:06;3.92;;;1.80;;
63259;SDS011;49390;51.380;0.098;2023-07-31T04:57:34;4.65;;;2.10;;
63259;SDS011;49390;51.380;0.098;2023-07-31T05:00:02;3.67;;;2.00;;
63259;SDS011;49390;51.380;0.098;2023-07-31T05:02:31;4.28;;;1.90;;
63259;SDS011;49390;51.380;0.098;2023-07-31T05:04:59;3.17;;;1.85;;
63259;SDS011;49390;51.380;0.098;2023-07-31T05:07:27;3.25;;;1.92;;
63259;SDS011;49390;51.380;0.098;2023-07-31T05:09:55;2.80;;;1.90;;
63259;SDS011;49390;51.380;0.098;2023-07-31T05:12:25;3.78;;;1.80;;
63259;SDS011;49390;51.380;0.098;2023-07-31T05:14:53;3.72;;;1.90;;
63259;SDS011;49390;51.380;0.098;2023-07-31T05:17:21;5.47;;;2.00;;
63259;SDS011;49390;51.380;0.098;2023-07-31T05:19:51;2.80;;;2.00;;
63259;SDS011;49390;51.380;0.098;2023-07-31T05:22:19;5.18;;;2.13;;
63259;SDS011;49390;51.380;0.098;2023-07-31T05:24:47;3.22;;;1.88;;
63259;SDS011;49390;51.380;0.098;2023-07-31T05:27:15;3.25;;;1.77;;
63259;SDS011;49390;51.380;0.098;2023-07-31T05:29:45;4.03;;;2.00;;
63259;SDS011;49390;51.380;0.098;2023-07-31T05:32:13;4.38;;;1.77;;
63259;SDS011;49390;51.380;0.098;2023-07-31T05:34:42;2.92;;;1.80;;
63259;SDS011;49390;51.380;0.098;2023-07-31T05:37:10;5.65;;;1.77;;
63259;SDS011;49390;51.380;0.098;2023-07-31T05:39:39;3.78;;;1.80;;
63259;SDS011;49390;51.380;0.098;2023-07-31T05:42:07;3.47;;;1.85;;
63259;SDS011;49390;51.380;0.098;2023-07-31T05:44:35;3.15;;;1.70;;
63259;SDS011;49390;51.380;0.098;2023-07-31T05:47:03;3.72;;;1.90;;
63259;SDS011;49390;51.380;0.098;2023-07-31T05:49:31;2.80;;;1.80;;
63259;SDS011;49390;51.380;0.098;2023-07-31T05:51:59;2.50;;;1.70;;
63259;SDS011;49390;51.380;0.098;2023-07-31T05:54:27;3.75;;;1.70;;
63259;SDS011;49390;51.380;0.098;2023-07-31T05:56:55;4.03;;;1.83;;
63259;SDS011;49390;51.380;0.098;2023-07-31T05:59:23;4.18;;;1.70;;
63259;SDS011;49390;51.380;0.098;2023-07-31T06:01:51;4.55;;;1.80;;
63259;SDS011;49390;51.380;0.098;2023-07-31T06:04:20;3.67;;;1.67;;
63259;SDS011;49390;51.380;0.098;2023-07-31T06:06:51;3.20;;;1.80;;
63259;SDS011;49390;51.380;0.098;2023-07-31T06:09:19;4.13;;;1.98;;
63259;SDS011;49390;51.380;0.098;2023-07-31T06:11:47;4.75;;;1.70;;
63259;SDS011;49390;51.380;0.098;2023-07-31T06:14:16;3.63;;;1.80;;
63259;SDS011;49390;51.380;0.098;2023-07-31T06:16:44;4.53;;;1.80;;
63259;SDS011;49390;51.380;0.098;2023-07-31T06:19:12;5.10;;;2.50;;
63259;SDS011;49390;51.380;0.098;2023-07-31T06:21:40;2.97;;;1.73;;
63259;SDS011;49390;51.380;0.098;2023-07-31T06:24:13;6.25;;;2.00;;
63259;SDS011;49390;51.380;0.098;2023-07-31T06:26:46;4.90;;;1.80;;
63259;SDS011;49390;51.380;0.098;2023-07-31T06:29:18;6.32;;;2.00;;
63259;SDS011;49390;51.380;0.098;2023-07-31T06:31:45;2.75;;;1.60;;
63259;SDS011;49390;51.380;0.098;2023-07-31T06:34:14;4.80;;;1.90;;
63259;SDS011;49390;51.380;0.098;2023-07-31T06:36:42;6.05;;;2.00;;
63259;SDS011;49390;51.380;0.098;2023-07-31T06:39:10;5.70;;;2.00;;
63259;SDS011;49390;51.380;0.098;2023-07-31T06:41:38;4.88;;;1.80;;
63259;SDS011;49390;51.380;0.098;2023-07-31T06:44:10;4.22;;;1.63;;
63259;SDS011;49390;51.380;0.098;2023-07-31T06:46:38;3.05;;;1.73;;
63259;SDS011;49390;51.380;0.098;2023-07-31T06:49:07;2.85;;;1.50;;
63259;SDS011;49390;51.380;0.098;2023-07-31T06:51:35;5.53;;;2.20;;
63259;SDS011;49390;51.380;0.098;2023-07-31T06:54:03;4.15;;;1.65;;
63259;SDS011;49390;51.380;0.098;2023-07-31T06:56:31;3.53;;;1.70;;
63259;SDS011;49390;51.380;0.098;2023-07-31T06:58:59;4.68;;;1.70;;
63259;SDS011;49390;51.380;0.098;2023-07-31T07:01:27;4.75;;;1.85;;
63259;SDS011;49390;51.380;0.098;2023-07-31T07:03:56;3.40;;;1.88;;
63259;SDS011;49390;51.380;0.098;2023-07-31T07:06:24;5.60;;;1.85;;
63259;SDS011;49390;51.380;0.098;2023-07-31T07:08:52;4.00;;;1.98;;
63259;SDS011;49390;51.380;0.098;2023-07-31T07:11:22;7.60;;;2.23;;
63259;SDS011;49390;51.380;0.098;2023-07-31T07:13:50;3.33;;;1.60;;
63259;SDS011;49390;51.380;0.098;2023-07-31T07:16:19;3.85;;;1.80;;
63259;SDS011;49390;51.380;0.098;2023-07-31T07:18:47;2.90;;;1.58;;
63259;SDS011;49390;51.380;0.098;2023-07-31T07:21:30;5.90;;;1.98;;
63259;SDS011;49390;51.380;0.098;2023-07-31T07:23:59;2.90;;;1.60;;
63259;SDS011;49390;51.380;0.098;2023-07-31T07:26:30;3.80;;;1.58;;
63259;SDS011;49390;51.380;0.098;2023-07-31T07:28:58;4.70;;;1.90;;
63259;SDS011;49390;51.380;0.098;2023-07-31T07:31:28;2.75;;;1.45;;
63259;SDS011;49390;51.380;0.098;2023-07-31T07:33:56;3.95;;;1.67;;
63259;SDS011;49390;51.380;0.098;2023-07-31T07:36:25;5.80;;;1.90;;
63259;SDS011;49390;51.380;0.098;2023-07-31T07:38:55;4.53;;;2.30;;
63259;SDS011;49390;51.380;0.098;2023-07-31T07:41:25;4.05;;;1.70;;
63259;SDS011;49390;51.380;0.098;2023-07-31T07:43:55;2.03;;;1.40;;
63259;SDS011;49390;51.380;0.098;2023-07-31T07:46:23;2.85;;;1.70;;
63259;SDS011;49390;51.380;0.098;2023-07-31T07:48:51;5.13;;;1.80;;
63259;SDS011;49390;51.380;0.098;2023-07-31T07:51:19;3.38;;;1.42;;
63259;SDS011;49390;51.380;0.098;2023-07-31T07:53:47;5.43;;;1.80;;
63259;SDS011;49390;51.380;0.098;2023-07-31T07:56:18;2.83;;;1.70;;
63259;SDS011;49390;51.380;0.098;2023-07-31T07:58:48;3.65;;;1.70;;
63259;SDS011;49390;51.380;0.098;2023-07-31T08:01:17;4.28;;;1.77;;
63259;SDS011;49390;51.380;0.098;2023-07-31T08:03:45;4.60;;;2.10;;
63259;SDS011;49390;51.380;0.098;2023-07-31T08:06:14;3.55;;;1.80;;
63259;SDS011;49390;51.380;0.098;2023-07-31T08:08:42;3.95;;;1.70;;
63259;SDS011;49390;51.380;0.098;2023-07-31T08:11:10;4.28;;;1.60;;
63259;SDS011;49390;51.380;0.098;2023-07-31T08:13:39;5.63;;;2.15;;
63259;SDS011;49390;51.380;0.098;2023-07-31T08:16:06;4.18;;;1.88;;
63259;SDS011;49390;51.380;0.098;2023-07-31T08:18:34;3.95;;;1.83;;
63259;SDS011;49390;51.380;0.098;2023-07-31T08:21:03;4.10;;;1.90;;
63259;SDS011;49390;51.380;0.098;2023-07-31T08:23:31;6.22;;;2.22;;
63259;SDS011;49390;51.380;0.098;2023-07-31T08:25:59;5.32;;;2.30;;
63259;SDS011;49390;51.380;0.098;2023-07-31T08:28:27;4.45;;;2.03;;
63259;SDS011;49390;51.380;0.098;2023-07-31T08:30:55;3.80;;;2.00;;
63259;SDS011;49390;51.380;0.098;2023-07-31T08:33:23;4.80;;;2.20;;
63259;SDS011;49390;51.380;0.098;2023-07-31T08:35:52;5.22;;;2.35;;
63259;SDS011;49390;51.380;0.098;2023-07-31T08:38:20;2.83;;;1.90;;
63259;SDS011;49390;51.380;0.098;2023-07-31T08:40:48;4.13;;;2.03;;
63259;SDS011;49390;51.380;0.098;2023-07-31T08:43:16;5.75;;;2.20;;
63259;SDS011;49390;51.380;0.098;2023-07-31T08:45:44;4.00;;;2.20;;
63259;SDS011;49390;51.380;0.098;2023-07-31T08:48:12;3.78;;;2.10;;
63259;SDS011;49390;51.380;0.098;2023-07-31T08:50:43;5.32;;;2.10;;
63259;SDS011;49390;51.380;0.098;2023-07-31T08:53:11;3.65;;;2.20;;
63259;SDS011;49390;51.380;0.098;2023-07-31T08:55:39;4.63;;;2.15;;
63259;SDS011;49390;51.380;0.098;2023-07-31T08:58:08;3.08;;;1.80;;
63259;SDS011;49390;51.380;0.098;2023-07-31T09:00:40;4.45;;;2.30;;
63259;SDS011;49390;51.380;0.098;2023-07-31T09:03:23;4.03;;;2.30;;
63259;SDS011;49390;51.380;0.098;2023-07-31T09:05:53;4.32;;;2.28;;
63259;SDS011;49390;51.380;0.098;2023-07-31T09:08:23;3.92;;;2.30;;
63259;SDS011;49390;51.380;0.098;2023-07-31T09:10:54;4.30;;;2.25;;
63259;SDS011;49390;51.380;0.098;2023-07-31T09:13:27;4.60;;;2.47;;
63259;SDS011;49390;51.380;0.098;2023-07-31T09:15:56;5.90;;;2.80;;
63259;SDS011;49390;51.380;0.098;2023-07-31T09:18:25;4.45;;;2.67;;
63259;SDS011;49390;51.380;0.098;2023-07-31T09:21:02;4.22;;;2.35;;
63259;SDS011;49390;51.380;0.098;2023-07-31T09:23:45;5.30;;;2.45;;
63259;SDS011;49390;51.380;0.098;2023-07-31T09:26:31;5.55;;;2.58;;
63259;SDS011;49390;51.380;0.098;2023-07-31T09:29:05;3.40;;;2.10;;
63259;SDS011;49390;51.380;0.098;2023-07-31T09:31:42;3.55;;;2.20;;
63259;SDS011;49390;51.380;0.098;2023-07-31T09:34:11;3.58;;;2.25;;
63259;SDS011;49390;51.380;0.098;2023-07-31T09:36:41;2.80;;;2.05;;
63259;SDS011;49390;51.380;0.098;2023-07-31T09:39:14;3.55;;;2.30;;
63259;SDS011;49390;51.380;0.098;2023-07-31T09:41:45;2.85;;;2.15;;
63259;SDS011;49390;51.380;0.098;2023-07-31T09:44:38;2.80;;;1.95;;
63259;SDS011;49390;51.380;0.098;2023-07-31T09:47:20;3.60;;;2.00;;
63259;SDS011;49390;51.380;0.098;2023-07-31T09:49:52;3.28;;;2.20;;
63259;SDS011;49390;51.380;0.098;2023-07-31T09:52:20;3.88;;;2.22;;
63259;SDS011;49390;51.380;0.098;2023-07-31T09:54:48;3.45;;;2.00;;
63259;SDS011;49390;51.380;0.098;2023-07-31T09:57:16;4.30;;;2.00;;
63259;SDS011;49390;51.380;0.098;2023-07-31T09:59:46;3.80;;;1.83;;
63259;SDS011;49390;51.380;0.098;2023-07-31T10:02:21;2.22;;;1.60;;
63259;SDS011;49390;51.380;0.098;2023-07-31T10:04:50;1.88;;;1.60;;
63259;SDS011;49390;51.380;0.098;2023-07-31T10:07:18;3.95;;;1.52;;
63259;SDS011;49390;51.380;0.098;2023-07-31T10:09:50;4.18;;;1.60;;
63259;SDS011;49390;51.380;0.098;2023-07-31T10:12:19;2.10;;;1.30;;
63259;SDS011;49390;51.380;0.098;2023-07-31T10:14:50;3.30;;;1.83;;
63259;SDS011;49390;51.380;0.098;2023-07-31T10:17:19;2.30;;;1.50;;
63259;SDS011;49390;51.380;0.098;2023-07-31T10:19:50;3.47;;;1.70;;
63259;SDS011;49390;51.380;0.098;2023-07-31T10:22:20;3.65;;;1.95;;
63259;SDS011;49390;51.380;0.098;2023-07-31T10:24:49;2.15;;;1.60;;
63259;SDS011;49390;51.380;0.098;2023-07-31T10:27:19;3.97;;;1.80;;
63259;SDS011;49390;51.380;0.098;2023-07-31T10:29:48;3.10;;;1.60;;
63259;SDS011;49390;51.380;0.098;2023-07-31T10:32:17;3.30;;;1.80;;
63259;SDS011;49390;51.380;0.098;2023-07-31T10:34:46;3.20;;;1.88;;
63259;SDS011;49390;51.380;0.098;2023-07-31T10:37:25;2.60;;;1.60;;
63259;SDS011;49390;51.380;0.098;2023-07-31T10:40:02;3.22;;;1.80;;
63259;SDS011;49390;51.380;0.098;2023-07-31T10:42:32;2.67;;;1.60;;
63259;SDS011;49390;51.380;0.098;2023-07-31T10:45:05;3.80;;;1.80;;
63259;SDS011;49390;51.380;0.098;2023-07-31T10:47:37;3.45;;;1.63;;
63259;SDS011;49390;51.380;0.098;2023-07-31T10:50:13;3.42;;;1.90;;
63259;SDS011;49390;51.380;0.098;2023-07-31T10:52:53;3.67;;;1.95;;
63259;SDS011;49390;51.380;0.098;2023-07-31T10:55:32;3.90;;;1.85;;
63259;SDS011;49390;51.380;0.098;2023-07-31T10:58:14;3.60;;;1.85;;
63259;SDS011;49390;51.380;0.098;2023-07-31T11:00:46;3.67;;;1.75;;
63259;SDS011;49390;51.380;0.098;2023-07-31T11:03:16;5.03;;;2.00;;
63259;SDS011;49390;51.380;0.098;2023-07-31T11:05:47;2.58;;;1.80;;
63259;SDS011;49390;51.380;0.098;2023-07-31T11:08:22;2.58;;;1.70;;
63259;SDS011;49390;51.380;0.098;2023-07-31T11:13:49;5.03;;;2.42;;
63259;SDS011;49390;51.380;0.098;2023-07-31T11:16:22;5.57;;;2.00;;
63259;SDS011;49390;51.380;0.098;2023-07-31T11:18:52;3.60;;;1.90;;
63259;SDS011;49390;51.380;0.098;2023-07-31T11:21:22;3.67;;;2.00;;
63259;SDS011;49390;51.380;0.098;2023-07-31T11:24:00;2.75;;;1.90;;
63259;SDS011;49390;51.380;0.098;2023-07-31T11:26:28;3.90;;;1.70;;
63259;SDS011;49390;51.380;0.098;2023-07-31T11:28:58;5.15;;;2.10;;
63259;SDS011;49390;51.380;0.098;2023-07-31T11:31:26;2.72;;;1.80;;
63259;SDS011;49390;51.380;0.098;2023-07-31T11:34:06;3.33;;;1.85;;
63259;SDS011;49390;51.380;0.098;2023-07-31T11:36:34;4.63;;;1.80;;
63259;SDS011;49390;51.380;0.098;2023-07-31T11:39:08;7.88;;;2.00;;
63259;SDS011;49390;51.380;0.098;2023-07-31T11:41:40;5.45;;;2.33;;
63259;SDS011;49390;51.380;0.098;2023-07-31T11:44:09;4.07;;;1.90;;
63259;SDS011;49390;51.380;0.098;2023-07-31T11:46:56;6.05;;;2.83;;
63259;SDS011;49390;51.380;0.098;2023-07-31T11:49:25;5.18;;;2.40;;
63259;SDS011;49390;51.380;0.098;2023-07-31T11:54:23;6.95;;;2.40;;
63259;SDS011;49390;51.380;0.098;2023-07-31T11:56:51;5.10;;;2.20;;
63259;SDS011;49390;51.380;0.098;2023-07-31T11:59:22;5.75;;;2.50;;
63259;SDS011;49390;51.380;0.098;2023-07-31T12:01:50;7.15;;;3.00;;
63259;SDS011;49390;51.380;0.098;2023-07-31T12:04:20;7.53;;;3.17;;
63259;SDS011;49390;51.380;0.098;2023-07-31T12:06:49;5.03;;;2.38;;
63259;SDS011;49390;51.380;0.098;2023-07-31T12:09:24;4.25;;;2.00;;
63259;SDS011;49390;51.380;0.098;2023-07-31T12:11:54;4.10;;;2.22;;
63259;SDS011;49390;51.380;0.098;2023-07-31T12:14:23;5.25;;;2.10;;
63259;SDS011;49390;51.380;0.098;2023-07-31T12:16:58;5.17;;;2.40;;
63259;SDS011;49390;51.380;0.098;2023-07-31T12:19:31;5.85;;;2.20;;
63259;SDS011;49390;51.380;0.098;2023-07-31T12:21:59;8.45;;;2.55;;
63259;SDS011;49390;51.380;0.098;2023-07-31T12:24:28;6.43;;;2.75;;
63259;SDS011;49390;51.380;0.098;2023-07-31T12:26:56;4.80;;;2.40;;
63259;SDS011;49390;51.380;0.098;2023-07-31T12:29:33;7.78;;;2.88;;
63259;SDS011;49390;51.380;0.098;2023-07-31T12:37:17;6.22;;;2.50;;
63259;SDS011;49390;51.380;0.098;2023-07-31T12:39:45;5.28;;;2.33;;
63259;SDS011;49390;51.380;0.098;2023-07-31T12:42:17;5.00;;;2.25;;
63259;SDS011;49390;51.380;0.098;2023-07-31T12:44:45;6.32;;;2.58;;
63259;SDS011;49390;51.380;0.098;2023-07-31T12:47:13;5.10;;;2.45;;
63259;SDS011;49390;51.380;0.098;2023-07-31T12:49:42;6.22;;;2.60;;
63259;SDS011;49390;51.380;0.098;2023-07-31T12:52:10;7.38;;;2.40;;
63259;SDS011;49390;51.380;0.098;2023-07-31T12:54:38;6.10;;;2.42;;
63259;SDS011;49390;51.380;0.098;2023-07-31T12:57:07;5.60;;;2.40;;
63259;SDS011;49390;51.380;0.098;2023-07-31T12:59:35;6.00;;;2.50;;
63259;SDS011;49390;51.380;0.098;2023-07-31T13:02:03;4.82;;;2.20;;
63259;SDS011;49390;51.380;0.098;2023-07-31T13:04:31;5.57;;;2.30;;
63259;SDS011;49390;51.380;0.098;2023-07-31T13:06:59;6.22;;;2.60;;
63259;SDS011;49390;51.380;0.098;2023-07-31T13:09:27;5.43;;;2.40;;
63259;SDS011;49390;51.380;0.098;2023-07-31T13:11:55;8.00;;;3.25;;
63259;SDS011;49390;51.380;0.098;2023-07-31T13:14:26;5.25;;;2.50;;
63259;SDS011;49390;51.380;0.098;2023-07-31T13:16:54;5.95;;;2.58;;
63259;SDS011;49390;51.380;0.098;2023-07-31T13:19:23;6.95;;;2.67;;
63259;SDS011;49390;51.380;0.098;2023-07-31T13:21:51;5.78;;;2.70;;
63259;SDS011;49390;51.380;0.098;2023-07-31T13:24:18;5.53;;;2.83;;
63259;SDS011;49390;51.380;0.098;2023-07-31T13:26:47;8.50;;;3.00;;
63259;SDS011;49390;51.380;0.098;2023-07-31T13:29:15;7.78;;;3.20;;
63259;SDS011;49390;51.380;0.098;2023-07-31T13:31:43;6.95;;;2.95;;
63259;SDS011;49390;51.380;0.098;2023-07-31T13:34:13;7.57;;;3.30;;
63259;SDS011;49390;51.380;0.098;2023-07-31T13:36:42;5.60;;;3.00;;
63259;SDS011;49390;51.380;0.098;2023-07-31T13:39:12;9.25;;;3.40;;
63259;SDS011;49390;51.380;0.098;2023-07-31T13:41:40;5.97;;;2.85;;
63259;SDS011;49390;51.380;0.098;2023-07-31T13:44:08;7.15;;;3.17;;
63259;SDS011;49390;51.380;0.098;2023-07-31T13:46:36;6.72;;;3.08;;
63259;SDS011;49390;51.380;0.098;2023-07-31T13:49:07;7.95;;;3.65;;
63259;SDS011;49390;51.380;0.098;2023-07-31T13:51:35;7.93;;;3.35;;
63259;SDS011;49390;51.380;0.098;2023-07-31T13:54:03;8.23;;;3.90;;
63259;SDS011;49390;51.380;0.098;2023-07-31T13:56:32;8.18;;;3.50;;
63259;SDS011;49390;51.380;0.098;2023-07-31T13:59:02;7.57;;;3.33;;
63259;SDS011;49390;51.380;0.098;2023-07-31T14:01:31;7.35;;;3.20;;
63259;SDS011;49390;51.380;0.098;2023-07-31T14:03:59;7.07;;;3.38;;
63259;SDS011;49390;51.380;0.098;2023-07-31T14:06:28;10.35;;;3.63;;
63259;SDS011;49390;51.380;0.098;2023-07-31T14:08:56;12.00;;;4.10;;
63259;SDS011;49390;51.380;0.098;2023-07-31T14:11:24;8.77;;;3.63;;
63259;SDS011;49390;51.380;0.098;2023-07-31T14:13:53;9.05;;;3.55;;
63259;SDS011;49390;51.380;0.098;2023-07-31T14:16:21;10.77;;;4.50;;
63259;SDS011;49390;51.380;0.098;2023-07-31T14:18:49;9.25;;;4.00;;
63259;SDS011;49390;51.380;0.098;2023-07-31T14:21:18;10.25;;;3.80;;
63259;SDS011;49390;51.380;0.098;2023-07-31T14:23:46;9.35;;;3.65;;
63259;SDS011;49390;51.380;0.098;2023-07-31T14:26:15;7.93;;;3.60;;
63259;SDS011;49390;51.380;0.098;2023-07-31T14:28:43;11.32;;;4.28;;
63259;SDS011;49390;51.380;0.098;2023-07-31T14:31:12;10.30;;;3.60;;
63259;SDS011;49390;51.380;0.098;2023-07-31T14:33:40;9.73;;;3.78;;
63259;SDS011;49390;51.380;0.098;2023-07-31T14:36:08;9.13;;;3.85;;
63259;SDS011;49390;51.380;0.098;2023-07-31T14:38:38;6.95;;;3.50;;
63259;SDS011;49390;51.380;0.098;2023-07-31T14:41:07;8.63;;;3.65;;
63259;SDS011;49390;51.380;0.098;2023-07-31T14:43:34;8.90;;;3.35;;
63259;SDS011;49390;51.380;0.098;2023-07-31T14:46:05;10.20;;;4.20;;
63259;SDS011;49390;51.380;0.098;2023-07-31T14:48:33;8.45;;;3.40;;
63259;SDS011;49390;51.380;0.098;2023-07-31T14:51:01;7.57;;;3.35;;
63259;SDS011;49390;51.380;0.098;2023-07-31T14:53:30;8.10;;;3.25;;
63259;SDS011;49390;51.380;0.098;2023-07-31T14:55:58;7.47;;;3.58;;
63259;SDS011;49390;51.380;0.098;2023-07-31T14:58:25;8.07;;;3.45;;
63259;SDS011;49390;51.380;0.098;2023-07-31T15:00:53;6.45;;;3.20;;
63259;SDS011;49390;51.380;0.098;2023-07-31T15:03:21;7.97;;;3.55;;
63259;SDS011;49390;51.380;0.098;2023-07-31T15:05:50;8.73;;;3.40;;
63259;SDS011;49390;51.380;0.098;2023-07-31T15:08:18;9.40;;;3.30;;
63259;SDS011;49390;51.380;0.098;2023-07-31T15:10:46;8.63;;;3.40;;
63259;SDS011;49390;51.380;0.098;2023-07-31T15:13:14;5.75;;;3.28;;
63259;SDS011;49390;51.380;0.098;2023-07-31T15:15:42;10.82;;;3.67;;
63259;SDS011;49390;51.380;0.098;2023-07-31T15:18:10;8.23;;;3.53;;
63259;SDS011;49390;51.380;0.098;2023-07-31T15:20:38;9.40;;;4.00;;
63259;SDS011;49390;51.380;0.098;2023-07-31T15:23:06;8.20;;;3.80;;